Time;durP1;ratioP1;P1;durP2;ratioP2;P2;SDS_P1;SDS_P2;PMS_P1;PMS_P2;Temp;Humidity;BMP_temperature;BMP_pressure;BME280_temperature;BME280_humidity;BME280_pressure;Samples;Min_cycle;Max_cycle;Signal;HPM_P1;HPM_P2
2022/04/14 00:00:09;;;;;;;9.23;6.97;;;;;;;9.94;100.00;96204.47;5012611;28;105559;-65
2022/04/14 00:02:41;;;;;;;7.07;6.17;;;;;;;9.95;100.00;96200.75;5029820;28;102219;-65
2022/04/14 00:05:09;;;;;;;6.40;5.80;;;;;;;9.80;100.00;96195.28;5029543;28;104821;-65
2022/04/14 00:07:36;;;;;;;5.10;4.60;;;;;;;9.71;100.00;96188.81;5029094;28;105614;-65
2022/04/14 00:10:04;;;;;;;6.27;5.27;;;;;;;9.61;100.00;96205.47;5029300;28;102085;-65
2022/04/14 00:12:31;;;;;;;6.03;5.50;;;;;;;9.64;100.00;96209.44;5029649;28;105155;-65
2022/04/14 00:15:00;;;;;;;5.70;5.20;;;;;;;9.13;100.00;96207.22;5029046;28;105449;-65
2022/04/14 00:17:28;;;;;;;7.60;5.73;;;;;;;9.06;100.00;96206.59;5029452;28;101813;-65
2022/04/14 00:19:56;;;;;;;5.73;4.97;;;;;;;9.06;100.00;96209.25;5032097;28;105797;-65
2022/04/14 00:22:23;;;;;;;5.47;5.07;;;;;;;9.15;100.00;96202.47;5029360;28;102045;-65
2022/04/14 00:24:50;;;;;;;5.73;5.17;;;;;;;9.11;100.00;96204.81;5030876;28;102408;-65
2022/04/14 00:27:18;;;;;;;9.57;6.00;;;;;;;9.15;100.00;96203.28;5028645;28;105324;-65
2022/04/14 00:29:45;;;;;;;6.67;6.07;;;;;;;8.95;100.00;96204.88;5029047;28;101936;-65
2022/04/14 00:32:12;;;;;;;6.93;6.23;;;;;;;8.73;100.00;96201.38;5030981;28;102538;-65
2022/04/14 00:34:39;;;;;;;6.77;6.10;;;;;;;8.84;100.00;96205.78;5028706;28;106468;-65
2022/04/14 00:37:09;;;;;;;6.57;5.93;;;;;;;8.87;100.00;96199.97;5030347;28;101798;-65
2022/04/14 00:39:36;;;;;;;6.83;6.10;;;;;;;8.92;100.00;96203.50;5030834;28;102459;-65
2022/04/14 00:42:09;;;;;;;7.03;6.40;;;;;;;8.95;100.00;96207.50;5033323;27;102987;-65
2022/04/14 00:44:36;;;;;;;6.83;6.13;;;;;;;8.43;100.00;96204.34;5030417;28;101730;-65
2022/04/14 00:47:04;;;;;;;7.97;6.70;;;;;;;8.43;100.00;96211.50;5029968;28;102599;-65
2022/04/14 00:49:31;;;;;;;7.30;6.60;;;;;;;8.59;100.00;96211.50;5030424;27;101829;-65
2022/04/14 00:52:01;;;;;;;8.33;6.80;;;;;;;8.65;100.00;96213.19;5028690;28;103552;-65
2022/04/14 00:54:31;;;;;;;10.07;9.00;;;;;;;8.71;100.00;96219.34;5029880;28;101975;-65
2022/04/14 00:56:58;;;;;;;8.20;7.37;;;;;;;8.75;100.00;96217.81;5028544;28;102194;-65
2022/04/14 00:59:25;;;;;;;10.53;8.00;;;;;;;8.83;100.00;96209.47;5028843;28;105771;-65
2022/04/14 01:01:53;;;;;;;8.50;7.67;;;;;;;8.99;100.00;96216.59;5029204;28;102644;-65
2022/04/14 01:04:20;;;;;;;10.53;9.03;;;;;;;9.10;100.00;96215.69;5032509;28;101828;-65
2022/04/14 01:06:48;;;;;;;9.53;8.27;;;;;;;9.12;100.00;96218.88;5028860;28;102585;-65
2022/04/14 01:09:19;;;;;;;8.80;7.90;;;;;;;9.13;100.00;96217.84;5029689;28;101814;-65
2022/04/14 01:11:48;;;;;;;9.37;8.47;;;;;;;9.19;100.00;96228.28;5030055;28;104567;-65
2022/04/14 01:14:25;;;;;;;9.60;7.90;;;;;;;9.18;100.00;96229.34;5029548;28;102480;-65
2022/04/14 01:16:52;;;;;;;8.43;7.17;;;;;;;8.96;100.00;96230.34;5030141;27;102391;-65
2022/04/14 01:19:19;;;;;;;9.53;7.23;;;;;;;8.85;100.00;96228.59;5028648;28;105712;-65
2022/04/14 01:21:52;;;;;;;10.27;7.80;;;;;;;8.99;100.00;96235.16;5027832;28;102731;-65
2022/04/14 01:24:20;;;;;;;10.03;8.20;;;;;;;9.02;100.00;96229.34;5033511;28;101691;-65
2022/04/14 01:26:47;;;;;;;8.13;7.33;;;;;;;8.97;100.00;96231.94;5011069;28;104990;-65
2022/04/14 01:29:23;;;;;;;7.93;6.80;;;;;;;8.93;100.00;96244.06;5011789;28;102092;-65
2022/04/14 01:31:51;;;;;;;9.03;7.40;;;;;;;8.86;100.00;96252.22;5028513;28;105184;-65
2022/04/14 01:34:18;;;;;;;9.50;7.80;;;;;;;8.89;100.00;96251.72;5027535;28;105673;-65
2022/04/14 01:36:45;;;;;;;7.73;6.77;;;;;;;9.21;100.00;96252.69;5028223;28;101919;-65
2022/04/14 01:39:13;;;;;;;7.73;6.87;;;;;;;8.98;100.00;96257.41;5028481;28;105165;-65
2022/04/14 01:41:43;;;;;;;7.70;6.83;;;;;;;8.87;100.00;96253.81;5027722;28;105198;-65
2022/04/14 01:44:11;;;;;;;7.97;7.17;;;;;;;9.09;100.00;96252.00;5028177;28;101912;-65
2022/04/14 01:46:41;;;;;;;8.73;7.40;;;;;;;8.96;100.00;96256.84;5031128;28;104855;-65
2022/04/14 01:49:08;;;;;;;6.87;6.17;;;;;;;8.58;100.00;96259.44;5028182;28;101883;-65
2022/04/14 01:51:36;;;;;;;7.57;6.67;;;;;;;8.69;100.00;96261.22;5028035;28;103661;-65
2022/04/14 01:54:03;;;;;;;6.37;5.77;;;;;;;8.57;100.00;96253.31;5027634;28;104300;-65
2022/04/14 01:56:30;;;;;;;7.53;6.40;;;;;;;8.61;100.00;96262.41;5027776;28;105617;-65
2022/04/14 01:59:00;;;;;;;7.00;6.40;;;;;;;8.54;100.00;96267.06;5028067;28;103510;-65
2022/04/14 02:01:28;;;;;;;7.20;6.50;;;;;;;8.46;100.00;96264.81;5027215;28;105401;-65
2022/04/14 02:03:56;;;;;;;6.80;6.10;;;;;;;8.36;100.00;96266.50;5028105;28;102122;-65
2022/04/14 02:06:23;;;;;;;7.77;5.77;;;;;;;8.17;100.00;96263.22;5027769;28;105239;-65
2022/04/14 02:08:50;;;;;;;6.83;6.13;;;;;;;8.08;100.00;96277.09;5030689;28;104972;-65
2022/04/14 02:11:18;;;;;;;6.33;5.73;;;;;;;8.03;100.00;96271.69;5027905;28;103594;-65
2022/04/14 02:13:45;;;;;;;7.57;6.10;;;;;;;8.06;100.00;96266.72;5027256;28;105002;-65
2022/04/14 02:16:14;;;;;;;6.13;5.53;;;;;;;8.05;100.00;96269.59;5029417;28;102252;-65
2022/04/14 02:18:41;;;;;;;7.00;6.23;;;;;;;8.07;100.00;96262.25;5028551;28;105120;-65
2022/04/14 02:21:09;;;;;;;6.27;5.67;;;;;;;7.91;100.00;96261.13;5030661;28;105548;-65
2022/04/14 02:23:36;;;;;;;6.30;5.70;;;;;;;7.89;100.00;96265.88;5031329;28;101899;-65
2022/04/14 02:26:03;;;;;;;6.13;5.53;;;;;;;7.77;100.00;96262.47;5031244;28;105499;-65
2022/04/14 02:28:29;;;;;;;6.63;6.03;;;;;;;7.83;100.00;96268.66;5031806;28;102535;-65
2022/04/14 02:30:56;;;;;;;6.90;5.87;;;;;;;7.81;100.00;96270.75;5034607;28;101971;-65
2022/04/14 02:33:25;;;;;;;6.50;5.80;;;;;;;7.53;100.00;96276.78;5030727;28;105660;-65
2022/04/14 02:35:52;;;;;;;7.73;6.33;;;;;;;7.45;100.00;96284.28;5030864;28;101859;-65
2022/04/14 02:38:20;;;;;;;7.10;6.40;;;;;;;7.39;100.00;96282.59;5030991;28;105193;-65
2022/04/14 02:40:47;;;;;;;7.37;6.20;;;;;;;7.11;100.00;96282.50;5030363;28;105819;-65
2022/04/14 02:43:14;;;;;;;7.13;5.63;;;;;;;7.14;100.00;96287.34;5032718;28;101860;-65
2022/04/14 02:45:41;;;;;;;8.03;5.60;;;;;;;7.28;100.00;96283.41;5031017;28;105729;-65
2022/04/14 02:48:08;;;;;;;7.27;5.33;;;;;;;7.32;100.00;96287.19;5030314;28;105065;-65
2022/04/14 02:50:38;;;;;;;6.50;5.83;;;;;;;6.81;100.00;96281.84;5031054;28;102058;-65
2022/04/14 02:53:05;;;;;;;6.03;5.17;;;;;;;6.94;100.00;96284.25;5033401;28;106247;-65
2022/04/14 02:55:32;;;;;;;6.57;5.87;;;;;;;6.88;100.00;96278.00;5030451;28;102306;-65
2022/04/14 02:57:59;;;;;;;6.77;5.80;;;;;;;7.06;100.00;96275.28;5030843;28;103754;-65
2022/04/14 03:00:27;;;;;;;5.63;5.13;;;;;;;6.81;100.00;96276.56;5030010;28;105419;-65
2022/04/14 03:02:54;;;;;;;6.50;5.90;;;;;;;6.95;100.00;96278.72;5030635;28;101817;-65
2022/04/14 03:05:22;;;;;;;7.83;6.10;;;;;;;6.94;100.00;96281.59;5030703;28;103581;-65
2022/04/14 03:07:51;;;;;;;6.77;6.07;;;;;;;6.87;100.00;96286.19;5029727;28;105357;-65
2022/04/14 03:10:20;;;;;;;7.03;6.33;;;;;;;6.77;100.00;96285.97;5030565;28;102250;-65
2022/04/14 03:12:49;;;;;;;7.10;5.90;;;;;;;6.91;100.00;96285.50;5030657;28;104173;-65
2022/04/14 03:15:16;;;;;;;6.63;6.03;;;;;;;6.90;100.00;96285.72;5033013;28;105706;-65
2022/04/14 03:17:44;;;;;;;6.27;5.63;;;;;;;6.95;100.00;96291.13;5030260;28;104827;-65
2022/04/14 03:20:12;;;;;;;8.40;6.30;;;;;;;6.97;100.00;96287.22;5030431;28;103991;-65
2022/04/14 03:22:39;;;;;;;6.80;6.20;;;;;;;7.01;100.00;96279.63;5030384;28;101744;-65
2022/04/14 03:25:10;;;;;;;5.57;5.10;;;;;;;7.04;100.00;96276.53;5031777;28;102581;-65
2022/04/14 03:27:38;;;;;;;7.40;5.90;;;;;;;6.89;100.00;96286.75;5029438;28;105723;-65
2022/04/14 03:30:05;;;;;;;6.73;5.87;;;;;;;6.90;100.00;96285.72;5029739;27;101853;-65
2022/04/14 03:32:34;;;;;;;7.73;6.40;;;;;;;6.77;100.00;96288.59;5030184;28;104027;-65
2022/04/14 03:35:04;;;;;;;8.07;6.07;;;;;;;6.84;100.00;96286.66;5033256;28;104284;-65
2022/04/14 03:37:30;;;;;;;6.13;5.60;;;;;;;6.92;100.00;96295.03;5030217;28;105114;-65
2022/04/14 03:39:57;;;;;;;7.03;5.73;;;;;;;6.69;100.00;96287.09;5029198;28;105660;-65
2022/04/14 03:42:27;;;;;;;9.07;6.03;;;;;;;6.69;100.00;96296.84;5030119;28;101755;-65
2022/04/14 03:44:55;;;;;;;6.30;5.70;;;;;;;6.65;100.00;96293.88;5030206;28;104218;-65
2022/04/14 03:47:22;;;;;;;9.10;6.83;;;;;;;6.69;100.00;96294.22;5029141;28;105365;-65
2022/04/14 03:49:48;;;;;;;9.77;6.33;;;;;;;6.69;100.00;96296.84;5031086;28;101818;-65
2022/04/14 03:52:15;;;;;;;6.73;6.13;;;;;;;6.72;100.00;96285.84;5029991;28;104972;-65
2022/04/14 03:54:42;;;;;;;6.90;6.27;;;;;;;6.57;100.00;96301.31;5029217;28;105126;-65
2022/04/14 03:57:09;;;;;;;7.47;6.67;;;;;;;6.57;100.00;96301.31;5033121;28;101972;-65
2022/04/14 03:59:39;;;;;;;7.50;6.47;;;;;;;6.70;100.00;96304.56;5029081;28;105128;-65
2022/04/14 04:02:07;;;;;;;6.80;6.10;;;;;;;6.49;100.00;96306.94;5029845;28;101913;-65
2022/04/14 04:04:34;;;;;;;7.20;6.03;;;;;;;6.59;100.00;96305.34;5029546;28;104791;-65
2022/04/14 04:07:01;;;;;;;7.10;6.37;;;;;;;6.48;100.00;96314.06;5029150;28;105212;-65
2022/04/14 04:09:28;;;;;;;6.70;5.83;;;;;;;6.39;100.00;96299.56;5029711;28;101870;-65
2022/04/14 04:11:58;;;;;;;8.20;5.80;;;;;;;6.31;100.00;96307.00;5029471;28;104897;-65
2022/04/14 04:14:25;;;;;;;6.30;5.70;;;;;;;6.28;100.00;96312.75;5028825;28;105287;-65
2022/04/14 04:16:54;;;;;;;8.43;6.67;;;;;;;6.41;100.00;96316.00;5031126;28;101668;-65
2022/04/14 04:19:20;;;;;;;6.03;5.43;;;;;;;6.29;100.00;96314.34;5032248;28;105142;-65
2022/04/14 04:21:49;;;;;;;8.03;6.57;;;;;;;6.24;100.00;96314.22;5029312;28;101960;-65
2022/04/14 04:24:15;;;;;;;7.27;5.93;;;;;;;6.25;100.00;96326.38;5029152;28;105329;-65
2022/04/14 04:26:43;;;;;;;8.83;5.83;;;;;;;6.37;100.00;96328.03;5024509;27;105326;-65
2022/04/14 04:29:11;;;;;;;7.80;5.50;;;;;;;6.32;100.00;96329.75;5022567;28;102199;-65
2022/04/14 04:31:39;;;;;;;6.17;5.27;;;;;;;6.40;100.00;96338.16;5010436;28;102435;-65
2022/04/14 04:34:07;;;;;;;7.43;6.33;;;;;;;6.46;100.00;96341.72;5007521;28;106580;-65
2022/04/14 04:36:35;;;;;;;6.87;6.10;;;;;;;6.45;100.00;96342.75;5025934;28;102327;-65
2022/04/14 04:39:04;;;;;;;8.63;6.60;;;;;;;6.41;100.00;96344.22;5026014;28;104837;-65
2022/04/14 04:41:32;;;;;;;6.50;5.97;;;;;;;6.48;100.00;96351.03;5028830;28;105366;-65
2022/04/14 04:43:59;;;;;;;6.27;5.50;;;;;;;6.35;100.00;96343.31;5025785;28;105081;-65
2022/04/14 04:46:26;;;;;;;6.00;5.43;;;;;;;6.43;100.00;96350.13;5041910;27;105535;-65
2022/04/14 04:48:53;;;;;;;6.80;6.10;;;;;;;6.47;100.00;96343.31;5042694;27;101896;-65
2022/04/14 04:51:22;;;;;;;8.00;6.37;;;;;;;6.50;100.00;96342.88;5010207;28;103232;-65
2022/04/14 04:53:48;;;;;;;6.93;5.90;;;;;;;6.56;100.00;96347.25;5041949;27;104032;-65
2022/04/14 04:56:16;;;;;;;6.27;5.67;;;;;;;6.51;100.00;96355.06;5024842;28;101892;-65
2022/04/14 04:58:43;;;;;;;6.97;6.27;;;;;;;6.60;100.00;96353.72;5008365;28;103911;-65
2022/04/14 05:01:09;;;;;;;9.73;6.30;;;;;;;6.63;100.00;96351.41;5024676;28;105298;-65
2022/04/14 05:03:36;;;;;;;7.70;7.00;;;;;;;6.59;100.00;96354.72;5028882;28;101788;-65
2022/04/14 05:06:04;;;;;;;8.33;6.40;;;;;;;6.72;100.00;96352.69;5041692;27;103908;-65
2022/04/14 05:08:32;;;;;;;8.03;6.60;;;;;;;6.68;100.00;96356.03;5009888;28;101847;-65
2022/04/14 05:10:59;;;;;;;7.43;6.73;;;;;;;6.85;100.00;96357.78;5042293;27;105381;-65
2022/04/14 05:13:26;;;;;;;7.33;6.63;;;;;;;6.93;100.00;96367.22;5007838;28;105385;-65
2022/04/14 05:15:53;;;;;;;7.77;6.73;;;;;;;7.02;100.00;96373.75;5025127;28;102069;-65
2022/04/14 05:18:20;;;;;;;7.37;6.67;;;;;;;7.12;100.00;96380.13;5042348;27;105326;-65
2022/04/14 05:20:49;;;;;;;9.33;7.10;;;;;;;7.15;100.00;96373.56;5009168;28;103028;-65
2022/04/14 05:23:15;;;;;;;7.57;6.37;;;;;;;7.24;100.00;96373.00;5041960;27;101833;-65
2022/04/14 05:25:45;;;;;;;9.20;6.57;;;;;;;7.27;100.00;96380.47;5012752;28;101746;-65
2022/04/14 05:28:12;;;;;;;7.47;6.73;;;;;;;7.46;100.00;96391.72;5024958;28;102024;-65
2022/04/14 05:30:39;;;;;;;7.20;6.40;;;;;;;7.65;100.00;96374.69;5010035;28;102473;-65
2022/04/14 05:33:10;;;;;;;7.43;6.73;;;;;;;7.73;100.00;96387.56;5024382;28;103830;-65
2022/04/14 05:35:37;;;;;;;8.40;6.53;;;;;;;7.77;100.00;96378.94;5042116;27;101841;-65
2022/04/14 05:38:05;;;;;;;7.93;6.97;;;;;;;7.84;100.00;96384.91;5041801;27;104815;-65
2022/04/14 05:40:32;;;;;;;8.63;6.40;;;;;;;7.90;100.00;96381.31;5041489;27;105408;-65
2022/04/14 05:43:00;;;;;;;7.07;6.37;;;;;;;8.05;100.00;96389.59;5041703;27;102301;-65
2022/04/14 05:45:29;;;;;;;6.87;6.23;;;;;;;8.22;100.00;96379.88;5027732;28;103804;-65
2022/04/14 05:47:55;;;;;;;7.83;6.30;;;;;;;8.40;100.00;96387.66;5041676;27;101927;-65
2022/04/14 05:50:24;;;;;;;7.23;6.60;;;;;;;8.51;100.00;96380.72;5025130;28;105216;-65
2022/04/14 05:52:50;;;;;;;7.30;6.47;;;;;;;8.63;100.00;96392.88;5041044;27;104977;-65
2022/04/14 05:55:17;;;;;;;7.53;6.67;;;;;;;8.79;100.00;96384.13;5027599;28;102057;-65
2022/04/14 05:57:44;;;;;;;7.60;6.23;;;;;;;9.05;100.00;96377.41;5044975;27;105848;-65
2022/04/14 06:00:16;;;;;;;7.60;6.90;;;;;;;8.97;100.00;96385.75;5012288;28;102746;-65
2022/04/14 06:02:42;;;;;;;7.87;7.10;;;;;;;9.09;100.00;96378.53;5012754;28;102054;-65
2022/04/14 06:05:10;;;;;;;7.60;6.80;;;;;;;9.37;100.00;96386.41;5012876;28;102351;-65
2022/04/14 06:07:37;;;;;;;8.07;7.23;;;;;;;9.57;100.00;96387.50;5047985;27;105504;-65
2022/04/14 06:10:04;;;;;;;9.17;7.20;;;;;;;9.80;100.00;96391.78;5045101;27;105070;-65
2022/04/14 06:12:30;;;;;;;7.40;6.70;;;;;;;9.98;100.00;96383.56;5012283;28;102037;-65
2022/04/14 06:14:58;;;;;;;6.80;6.10;;;;;;;10.14;100.00;96375.53;5027937;28;101937;-65
2022/04/14 06:17:26;;;;;;;8.00;5.17;;;;;;;10.32;100.00;96385.06;5011158;28;105059;-65
2022/04/14 06:19:55;;;;;;;5.30;4.63;;;;;;;10.50;100.00;96372.25;5027313;28;105386;-65
2022/04/14 06:22:22;;;;;;;5.83;4.90;;;;;;;10.62;100.00;96382.72;5027965;28;101873;-65
2022/04/14 06:24:49;;;;;;;6.57;4.97;;;;;;;10.81;100.00;96376.00;5027673;28;104899;-65
2022/04/14 06:27:16;;;;;;;5.53;5.00;;;;;;;10.93;100.00;96374.00;5011805;28;103328;-65
2022/04/14 06:29:43;;;;;;;5.30;4.80;;;;;;;11.04;100.00;96379.16;5015951;28;101909;-65
2022/04/14 06:32:11;;;;;;;6.07;4.97;;;;;;;11.28;100.00;96379.63;5010329;28;103876;-65
2022/04/14 06:34:39;;;;;;;6.13;4.67;;;;;;;11.50;100.00;96369.69;5028028;28;102532;-65
2022/04/14 06:37:06;;;;;;;7.00;4.70;;;;;;;11.68;100.00;96371.94;5044878;27;105221;-65
2022/04/14 06:39:34;;;;;;;6.80;4.50;;;;;;;11.85;100.00;96375.25;5011462;28;102835;-65
2022/04/14 06:42:00;;;;;;;4.77;4.33;;;;;;;12.12;100.00;96371.38;5027718;28;102071;-65
2022/04/14 06:44:28;;;;;;;5.30;4.40;;;;;;;12.30;100.00;96375.44;5044802;27;104812;-65
2022/04/14 06:46:55;;;;;;;4.53;4.13;;;;;;;12.47;100.00;96376.03;5010126;28;105448;-65
2022/04/14 06:49:21;;;;;;;7.07;4.30;;;;;;;12.53;100.00;96375.00;5010562;28;102019;-65
2022/04/14 06:51:50;;;;;;;4.63;4.13;;;;;;;12.63;100.00;96381.16;5030564;28;105074;-65
2022/04/14 06:54:17;;;;;;;6.90;4.30;;;;;;;12.83;100.00;96378.53;5011993;28;101744;-65
2022/04/14 06:56:44;;;;;;;3.97;3.60;;;;;;;12.87;100.00;96376.16;5027036;28;105037;-65
2022/04/14 06:59:11;;;;;;;7.07;4.27;;;;;;;13.15;100.00;96371.16;5043842;27;104305;-64
2022/04/14 07:01:39;;;;;;;5.63;3.63;;;;;;;13.34;100.00;96374.06;5043903;27;102923;-64
2022/04/14 07:04:06;;;;;;;6.53;3.83;;;;;;;13.44;100.00;96380.22;5027249;28;105877;-64
2022/04/14 07:06:33;;;;;;;5.93;3.67;;;;;;;13.35;100.00;96373.00;5042696;27;105284;-64
2022/04/14 07:09:02;;;;;;;4.27;3.13;;;;;;;13.52;100.00;96376.22;5027207;28;101842;-65
2022/04/14 07:11:29;;;;;;;5.53;2.90;;;;;;;13.70;100.00;96384.47;5026831;28;105539;-64
2022/04/14 07:13:58;;;;;;;4.20;2.80;;;;;;;14.01;100.00;96386.00;5013356;28;105816;-64
2022/04/14 07:16:25;;;;;;;4.23;2.77;;;;;;;14.29;100.00;96392.63;5044086;27;105526;-65
2022/04/14 07:18:51;;;;;;;4.73;2.47;;;;;;;14.65;100.00;96380.69;5026107;28;105289;-64
2022/04/14 07:21:18;;;;;;;4.20;3.03;;;;;;;14.78;100.00;96385.44;5026992;28;101860;-65
2022/04/14 07:23:45;;;;;;;3.47;2.67;;;;;;;14.94;100.00;96385.06;5044011;27;105727;-66
2022/04/14 07:26:13;;;;;;;3.47;2.90;;;;;;;15.27;100.00;96380.84;5026285;28;105480;-65
2022/04/14 07:28:41;;;;;;;4.33;2.70;;;;;;;15.39;100.00;96379.44;5043731;27;101808;-65
2022/04/14 07:31:08;;;;;;;5.87;2.60;;;;;;;15.51;100.00;96384.41;5026810;28;105611;-63
2022/04/14 07:33:36;;;;;;;5.47;2.67;;;;;;;15.70;100.00;96382.66;5026051;28;105274;-63
2022/04/14 07:36:03;;;;;;;3.43;2.60;;;;;;;16.07;100.00;96385.50;5013580;28;102644;-63
2022/04/14 07:38:30;;;;;;;2.80;2.47;;;;;;;16.15;100.00;96388.34;5043389;27;105660;-63
2022/04/14 07:40:57;;;;;;;3.10;2.30;;;;;;;16.46;100.00;96386.16;5043635;27;101985;-63
2022/04/14 07:43:28;;;;;;;4.33;2.30;;;;;;;16.54;100.00;96390.88;5026630;28;103620;-63
2022/04/14 07:45:55;;;;;;;4.33;2.20;;;;;;;16.75;100.00;96384.97;5010751;28;102790;-63
2022/04/14 07:48:22;;;;;;;2.77;2.00;;;;;;;16.74;100.00;96387.94;5043736;27;102361;-63
2022/04/14 07:50:49;;;;;;;3.90;2.30;;;;;;;16.96;100.00;96385.50;5043587;27;106018;-63
2022/04/14 07:53:16;;;;;;;4.57;2.20;;;;;;;17.13;100.00;96391.16;5025741;28;105029;-63
2022/04/14 07:55:43;;;;;;;3.53;1.90;;;;;;;17.18;100.00;96391.88;5014297;28;102100;-63
2022/04/14 07:58:10;;;;;;;2.40;2.17;;;;;;;17.45;100.00;96393.91;5042718;27;105746;-63
2022/04/14 08:00:40;;;;;;;3.80;2.10;;;;;;;17.51;97.63;96392.72;5026139;28;102207;-63
2022/04/14 08:03:09;;;;;;;2.87;2.20;;;;;;;17.65;95.67;96397.06;5009549;28;105136;-63
2022/04/14 08:05:37;;;;;;;3.13;2.47;;;;;;;17.65;94.82;96397.06;5008999;28;105449;-63
2022/04/14 08:08:05;;;;;;;8.07;2.30;;;;;;;17.90;93.10;96396.63;5025993;28;102352;-63
2022/04/14 08:10:32;;;;;;;3.27;2.40;;;;;;;18.03;93.28;96401.25;5043381;27;105215;-63
2022/04/14 08:13:00;;;;;;;3.37;2.30;;;;;;;18.02;90.94;96404.22;5025440;28;105366;-63
2022/04/14 08:15:27;;;;;;;4.07;2.30;;;;;;;17.87;90.80;96397.22;5010877;28;101787;-63
2022/04/14 08:17:57;;;;;;;5.97;2.37;;;;;;;18.21;92.37;96397.66;5028552;27;105227;-63
2022/04/14 08:20:25;;;;;;;2.50;2.30;;;;;;;18.30;89.38;96401.28;5043045;27;101900;-63
2022/04/14 08:22:54;;;;;;;3.33;2.13;;;;;;;18.58;89.59;96402.13;5042718;27;104923;-63
2022/04/14 08:25:24;;;;;;;4.90;2.27;;;;;;;18.68;91.56;96407.28;5008937;28;105459;-63
2022/04/14 08:27:51;;;;;;;4.80;2.47;;;;;;;18.68;88.25;96407.28;5042684;27;102161;-63
2022/04/14 08:30:21;;;;;;;4.13;2.10;;;;;;;19.01;86.52;96412.22;5043093;27;104888;-63
2022/04/14 08:32:50;;;;;;;4.00;2.27;;;;;;;19.19;86.46;96408.59;5010208;28;103153;-63
2022/04/14 08:35:20;;;;;;;3.30;2.43;;;;;;;19.16;83.42;96405.69;5025820;28;101970;-63
2022/04/14 08:37:48;;;;;;;6.90;2.50;;;;;;;19.38;85.49;96405.75;5025876;28;104853;-63
2022/04/14 08:40:18;;;;;;;3.20;2.50;;;;;;;19.41;84.58;96402.47;5011635;28;105212;-63
2022/04/14 08:42:59;;;;;;;3.97;2.47;;;;;;;19.56;85.42;96410.22;5042801;27;105239;-63
2022/04/14 08:45:28;;;;;;;3.70;2.87;;;;;;;19.48;81.90;96397.44;5025288;28;105424;-63
2022/04/14 08:47:56;;;;;;;3.27;2.77;;;;;;;19.88;84.75;96393.72;5025812;28;101931;-63
2022/04/14 08:50:26;;;;;;;4.23;2.70;;;;;;;20.37;79.01;96402.44;5042778;27;105203;-63
2022/04/14 08:52:53;;;;;;;4.77;2.93;;;;;;;20.43;77.37;96389.63;5041836;27;105650;-63
2022/04/14 08:55:21;;;;;;;4.47;3.00;;;;;;;20.57;76.27;96396.50;5024841;28;102411;-63
2022/04/14 08:57:48;;;;;;;5.83;2.80;;;;;;;20.85;76.03;96391.63;5042165;27;105260;-63
2022/04/14 09:00:17;;;;;;;6.73;3.83;;;;;;;20.75;74.96;96394.63;5024678;28;103682;-63
2022/04/14 09:02:46;;;;;;;5.87;3.60;;;;;;;20.60;76.51;96395.84;5012266;28;102376;-63
2022/04/14 09:05:14;;;;;;;3.93;3.30;;;;;;;20.50;77.25;96392.66;5007676;28;103808;-63
2022/04/14 09:07:44;;;;;;;4.53;3.50;;;;;;;20.11;79.64;96393.44;5025318;28;101894;-63
2022/04/14 09:10:11;;;;;;;6.43;3.30;;;;;;;20.62;82.11;96392.84;5008708;28;105251;-63
2022/04/14 09:12:38;;;;;;;5.77;3.60;;;;;;;21.09;76.53;96392.03;5024453;28;105654;-63
2022/04/14 09:15:07;;;;;;;4.60;3.50;;;;;;;20.97;77.17;96386.44;5025140;28;102038;-65
2022/04/14 09:17:33;;;;;;;9.10;5.67;;;;;;;21.22;73.27;96391.91;5042292;27;104317;-63
2022/04/14 09:20:01;;;;;;;8.43;6.00;;;;;;;21.33;70.51;96392.38;5024399;28;103750;-63
2022/04/14 09:22:27;;;;;;;7.13;6.00;;;;;;;21.15;70.29;96390.78;5042233;27;101787;-63
2022/04/14 09:24:57;;;;;;;6.73;5.83;;;;;;;21.14;70.99;96384.56;5028094;28;105073;-63
2022/04/14 09:27:27;;;;;;;10.23;6.33;;;;;;;20.65;73.20;96393.00;5041822;27;102331;-63
2022/04/14 09:29:56;;;;;;;8.23;6.37;;;;;;;20.95;73.44;96375.16;5008882;28;102415;-63
2022/04/14 09:32:32;;;;;;;9.57;6.17;;;;;;;21.03;72.45;96385.19;5007681;28;105362;-63
2022/04/14 09:35:00;;;;;;;8.43;5.77;;;;;;;20.79;74.15;96393.69;5009621;28;101992;-63
2022/04/14 09:37:28;;;;;;;11.63;6.83;;;;;;;20.75;72.04;96391.91;5041905;27;105073;-63
2022/04/14 09:40:02;;;;;;;10.10;6.00;;;;;;;21.09;69.35;96379.28;5024304;28;104156;-63
2022/04/14 09:42:31;;;;;;;8.50;6.63;;;;;;;20.69;73.01;96391.28;5042184;27;102004;-63
2022/04/14 09:45:18;;;;;;;8.03;6.67;;;;;;;20.82;72.03;96392.28;5024944;28;105971;-63
2022/04/14 09:47:45;;;;;;;8.33;6.07;;;;;;;21.02;73.80;96395.19;5011997;28;101682;-63
2022/04/14 09:50:29;;;;;;;6.57;5.63;;;;;;;21.42;67.53;96390.47;5041613;27;104889;-63
2022/04/14 09:53:01;;;;;;;10.13;5.77;;;;;;;21.88;66.00;96382.47;5041103;27;106653;-63
2022/04/14 09:55:30;;;;;;;8.50;6.00;;;;;;;21.46;64.24;96384.09;5008922;28;101791;-63
2022/04/14 09:58:14;;;;;;;7.27;6.10;;;;;;;21.56;62.28;96396.50;5009487;28;102617;-63
2022/04/14 10:00:46;;;;;;;6.37;5.30;;;;;;;21.94;63.83;96386.59;5040857;27;105409;-63
2022/04/14 10:03:18;;;;;;;8.27;4.73;;;;;;;22.19;58.69;96380.34;5009328;28;102064;-63
2022/04/14 10:05:46;;;;;;;7.60;5.67;;;;;;;21.64;54.46;96382.19;5009243;28;102399;-63
2022/04/14 10:08:14;;;;;;;6.00;4.73;;;;;;;22.25;57.09;96381.75;5012022;28;103115;-63
2022/04/14 10:10:44;;;;;;;8.43;4.60;;;;;;;21.83;53.06;96385.34;5009308;28;102848;-63
2022/04/14 10:13:13;;;;;;;4.37;3.80;;;;;;;21.88;50.02;96387.88;5008659;28;102597;-63
2022/04/14 10:15:42;;;;;;;4.63;3.30;;;;;;;21.97;47.61;96386.75;5009017;28;101811;-63
2022/04/14 10:18:11;;;;;;;5.60;3.73;;;;;;;21.85;45.55;96389.31;5009217;28;102327;-63
2022/04/14 10:20:39;;;;;;;5.40;3.70;;;;;;;21.62;47.95;96379.78;5040537;27;103696;-63
2022/04/14 10:23:08;;;;;;;7.13;4.37;;;;;;;21.91;50.39;96387.25;5024470;28;101803;-63
2022/04/14 10:25:38;;;;;;;8.53;4.90;;;;;;;21.89;51.61;96381.34;5007854;28;103644;-63
2022/04/14 10:28:09;;;;;;;6.93;4.20;;;;;;;21.86;52.12;96371.19;5008393;28;102547;-63
2022/04/14 10:30:36;;;;;;;6.17;4.50;;;;;;;21.51;51.38;96375.00;5044777;27;101765;-63
2022/04/14 10:33:02;;;;;;;5.30;4.20;;;;;;;21.93;48.05;96380.41;5023574;28;105531;-63
2022/04/14 10:35:31;;;;;;;6.73;4.33;;;;;;;21.95;49.55;96377.34;5041495;27;102121;-63
2022/04/14 10:38:04;;;;;;;5.90;4.10;;;;;;;21.93;48.34;96393.13;5024387;28;104831;-63
2022/04/14 10:40:32;;;;;;;5.63;4.20;;;;;;;21.87;47.11;96375.47;5025368;27;105780;-63
2022/04/14 10:43:01;;;;;;;9.37;4.13;;;;;;;22.30;47.82;96378.84;5027644;28;101741;-63
2022/04/14 10:45:29;;;;;;;7.33;4.03;;;;;;;22.60;45.29;96366.94;5044710;27;105070;-63
2022/04/14 10:47:58;;;;;;;5.10;3.47;;;;;;;22.72;45.36;96375.97;5044007;27;105120;-63
2022/04/14 10:50:27;;;;;;;4.23;3.40;;;;;;;22.66;44.11;96368.38;5027506;28;101986;-63
2022/04/14 10:53:07;;;;;;;6.67;3.67;;;;;;;22.23;44.81;96368.50;5013392;28;105270;-63
2022/04/14 10:55:39;;;;;;;3.47;3.03;;;;;;;22.35;44.00;96365.91;5027080;28;101737;-63
2022/04/14 10:58:06;;;;;;;4.57;3.10;;;;;;;22.65;41.32;96372.19;5011816;28;102552;-63
2022/04/14 11:00:50;;;;;;;4.27;3.00;;;;;;;23.24;41.75;96369.13;5043306;27;105078;-63
2022/04/14 11:03:17;;;;;;;4.27;3.50;;;;;;;23.27;42.01;96371.16;5012000;28;102194;-63
2022/04/14 11:05:46;;;;;;;5.00;3.40;;;;;;;23.25;44.35;96373.44;5044270;27;105567;-63
2022/04/14 11:08:24;;;;;;;5.00;4.20;;;;;;;22.68;42.76;96374.25;5026566;28;105978;-63
2022/04/14 11:11:12;;;;;;;4.70;3.70;;;;;;;23.26;43.56;96366.09;5011870;28;101952;-63
2022/04/14 11:14:10;;;;;;;4.33;3.63;;;;;;;23.09;44.48;96374.31;5044200;27;103640;-63
2022/04/14 11:16:47;;;;;;;6.73;3.90;;;;;;;22.99;44.93;96374.72;5046908;27;105681;-63
2022/04/14 11:19:25;;;;;;;4.57;4.07;;;;;;;23.19;46.48;96374.75;5010227;28;105208;-63
2022/04/14 11:22:08;;;;;;;7.40;3.97;;;;;;;23.09;44.75;96366.16;5009516;28;105289;-63
2022/04/14 11:24:43;;;;;;;8.20;3.83;;;;;;;23.51;44.98;96365.88;5008932;28;101939;-63
2022/04/14 11:27:14;;;;;;;4.93;4.10;;;;;;;23.08;46.29;96368.09;5026871;28;105509;-63
2022/04/14 11:29:44;;;;;;;6.00;4.27;;;;;;;23.01;47.96;96362.41;5043281;27;105199;-63